createdAt,value
2022-11-17T00:00:25.208Z,2.17
2022-11-17T00:05:30.454Z,4.72
2022-11-17T00:10:34.049Z,3.60
2022-11-17T00:15:37.727Z,6.00
2022-11-17T00:20:43.412Z,2.90
2022-11-17T00:25:47.010Z,4.00
2022-11-17T00:30:53.474Z,2.72
2022-11-17T00:35:59.722Z,3.72
2022-11-17T00:41:03.321Z,2.92
2022-11-17T00:46:07.084Z,3.42
2022-11-17T00:51:12.308Z,3.75
2022-11-17T00:56:15.901Z,3.93
2022-11-17T01:01:19.664Z,2.72
2022-11-17T01:06:24.968Z,4.13
2022-11-17T01:11:29.565Z,4.30
2022-11-17T01:16:34.087Z,2.97
2022-11-17T01:21:39.383Z,2.33
2022-11-17T01:26:43.806Z,3.33
2022-11-17T01:31:51.667Z,3.90
2022-11-17T01:36:56.957Z,4.70
2022-11-17T01:42:05.097Z,5.43
2022-11-17T01:47:16.825Z,4.88
2022-11-17T01:52:23.461Z,5.00
2022-11-17T01:57:32.899Z,3.60
2022-11-17T02:02:40.518Z,4.15
2022-11-17T02:07:47.304Z,3.90
2022-11-17T02:12:52.393Z,4.13
2022-11-17T02:18:00.617Z,4.73
2022-11-17T02:23:36.825Z,3.65
2022-11-17T02:28:50.480Z,4.20
2022-11-17T02:34:02.278Z,3.30
2022-11-17T02:39:13.932Z,4.40
2022-11-17T02:44:26.356Z,5.15
2022-11-17T02:49:34.863Z,6.50
2022-11-17T02:54:38.436Z,4.35
2022-11-17T02:59:48.183Z,5.05
2022-11-17T03:05:04.457Z,5.03
2022-11-17T03:10:15.665Z,5.95
2022-11-17T03:15:28.003Z,4.65
2022-11-17T03:20:38.970Z,4.03
2022-11-17T03:25:46.399Z,5.80
2022-11-17T03:30:53.216Z,5.03
2022-11-17T03:36:01.891Z,7.63
2022-11-17T03:41:10.388Z,7.47
2022-11-17T03:46:18.396Z,5.95
2022-11-17T03:51:25.317Z,5.88
2022-11-17T03:56:37.943Z,6.47
2022-11-17T04:01:43.463Z,4.85
2022-11-17T04:06:47.366Z,7.00
2022-11-17T04:11:51.611Z,5.03
2022-11-17T04:16:57.730Z,7.40
2022-11-17T04:22:01.253Z,7.07
2022-11-17T04:27:04.823Z,5.10
2022-11-17T04:32:09.992Z,5.82
2022-11-17T04:37:13.561Z,5.15
2022-11-17T04:42:17.092Z,4.55
2022-11-17T04:47:22.322Z,4.85
2022-11-17T04:52:29.656Z,4.90
2022-11-17T04:57:33.546Z,5.22
2022-11-17T05:02:38.794Z,4.93
2022-11-17T05:07:42.477Z,3.80
2022-11-17T05:12:46.045Z,5.45
2022-11-17T05:17:51.235Z,6.65
2022-11-17T05:22:54.772Z,4.13
2022-11-17T05:27:58.337Z,5.15
2022-11-17T05:33:03.535Z,5.72
2022-11-17T05:38:07.089Z,6.15
2022-11-17T05:43:10.664Z,6.75
2022-11-17T05:48:16.600Z,4.47
2022-11-17T05:53:20.175Z,4.80
2022-11-17T05:58:27.209Z,4.22
2022-11-17T06:03:37.815Z,5.75
2022-11-17T06:08:42.108Z,4.47
2022-11-17T06:13:45.737Z,4.78
2022-11-17T06:18:55.681Z,4.78
2022-11-17T06:23:59.571Z,5.70
2022-11-17T06:29:05.015Z,4.88
2022-11-17T06:34:10.748Z,4.83
2022-11-17T06:39:14.278Z,5.53
2022-11-17T06:44:17.819Z,5.63
2022-11-17T06:49:22.994Z,5.25
2022-11-17T06:54:26.599Z,5.03
2022-11-17T06:59:30.189Z,5.22
2022-11-17T07:04:35.367Z,4.40
2022-11-17T07:09:39.033Z,4.20
2022-11-17T07:14:42.620Z,4.30
2022-11-17T07:19:47.851Z,3.33
2022-11-17T07:24:51.451Z,4.93
2022-11-17T07:29:55.042Z,4.50
2022-11-17T07:35:00.296Z,3.47
2022-11-17T07:40:03.985Z,5.97
2022-11-17T07:45:08.581Z,4.85
2022-11-17T07:50:13.774Z,4.65
2022-11-17T07:55:17.537Z,4.28
2022-11-17T08:00:21.477Z,5.68
2022-11-17T08:05:26.738Z,4.05
2022-11-17T08:10:30.714Z,4.28
2022-11-17T08:15:34.768Z,5.05
2022-11-17T08:20:40.016Z,5.35
2022-11-17T08:25:43.676Z,6.05
2022-11-17T08:30:47.288Z,5.80
2022-11-17T08:35:52.520Z,4.57
2022-11-17T08:40:56.278Z,7.43
2022-11-17T08:45:59.931Z,5.60
2022-11-17T08:51:09.125Z,4.43
2022-11-17T08:56:14.020Z,4.95
2022-11-17T09:01:17.811Z,6.57
2022-11-17T09:06:23.150Z,5.85
2022-11-17T09:11:26.754Z,4.65
2022-11-17T09:16:30.408Z,5.05
2022-11-17T09:21:35.595Z,5.63
2022-11-17T09:26:39.341Z,5.05
2022-11-17T09:31:42.954Z,4.07
2022-11-17T09:36:48.376Z,5.38
2022-11-17T09:41:54.286Z,4.25
2022-11-17T09:47:14.405Z,4.07
2022-11-17T09:52:24.705Z,4.53
2022-11-17T09:57:37.318Z,4.00
2022-11-17T10:02:41.418Z,5.45
2022-11-17T10:07:50.255Z,5.60
2022-11-17T10:12:58.676Z,4.10
2022-11-17T10:18:02.253Z,5.07
2022-11-17T10:23:08.172Z,6.55
2022-11-17T10:28:25.657Z,6.40
2022-11-17T10:33:38.037Z,5.35
2022-11-17T10:38:46.020Z,5.60
2022-11-17T10:43:59.327Z,4.93
2022-11-17T10:49:04.234Z,6.05
2022-11-17T10:54:22.785Z,5.22
2022-11-17T10:59:30.842Z,3.70
2022-11-17T11:04:36.723Z,6.65
2022-11-17T11:09:49.179Z,5.33
2022-11-17T11:14:56.844Z,4.78
2022-11-17T11:20:00.897Z,5.22
2022-11-17T11:25:25.533Z,4.47
2022-11-17T11:30:32.362Z,4.18
2022-11-17T11:35:49.938Z,4.68
2022-11-17T11:41:12.278Z,5.90
2022-11-17T11:46:18.711Z,4.75
2022-11-17T11:51:26.636Z,5.70
2022-11-17T11:56:34.765Z,6.15
2022-11-17T12:01:48.480Z,4.30
2022-11-17T12:06:59.416Z,3.72
2022-11-17T12:12:09.278Z,6.22
2022-11-17T12:17:20.418Z,5.22
2022-11-17T12:22:49.928Z,4.65
2022-11-17T12:27:56.164Z,5.60
2022-11-17T12:33:00.340Z,4.60
2022-11-17T12:38:41.125Z,5.38
2022-11-17T12:43:47.281Z,5.72
2022-11-17T12:49:03.306Z,3.70
2022-11-17T12:54:21.342Z,4.30
2022-11-17T12:59:54.606Z,4.07
2022-11-17T13:05:02.492Z,6.10
2022-11-17T13:10:06.759Z,5.03
2022-11-17T13:15:24.538Z,4.93
2022-11-17T13:20:29.560Z,6.07
2022-11-17T13:25:33.780Z,6.10
2022-11-17T13:30:40.582Z,5.28
2022-11-17T13:40:48.448Z,4.88
2022-11-17T13:45:55.436Z,3.92
2022-11-17T13:51:18.250Z,4.90
2022-11-17T13:56:27.243Z,5.30
2022-11-17T14:01:32.579Z,5.03
2022-11-17T14:06:57.192Z,3.80
2022-11-17T14:12:01.231Z,5.03
2022-11-17T14:17:19.147Z,5.13
2022-11-17T14:22:30.961Z,5.55
2022-11-17T14:27:40.079Z,5.22
2022-11-17T14:32:45.382Z,4.93
2022-11-17T14:37:48.964Z,4.53
2022-11-17T14:42:52.562Z,5.57
2022-11-17T14:47:57.792Z,4.80
2022-11-17T14:53:01.448Z,4.65
2022-11-17T14:58:05.101Z,5.05
2022-11-17T15:03:10.868Z,4.90
2022-11-17T15:08:14.807Z,4.30
2022-11-17T15:13:18.352Z,5.40
2022-11-17T15:18:23.528Z,8.02
2022-11-17T15:23:27.147Z,5.10
2022-11-17T15:28:30.774Z,6.72
2022-11-17T15:33:36.990Z,5.40
2022-11-17T15:38:41.643Z,5.47
2022-11-17T15:43:45.884Z,5.50
2022-11-17T15:48:51.395Z,6.53
2022-11-17T15:53:57.970Z,4.38
2022-11-17T16:04:07.578Z,8.07
2022-11-17T16:09:11.794Z,6.78
2022-11-17T16:14:15.438Z,5.18
2022-11-17T16:19:20.661Z,5.22
2022-11-17T16:24:24.422Z,7.43
2022-11-17T16:29:27.970Z,9.77
2022-11-17T16:34:34.132Z,4.57
2022-11-17T16:39:37.735Z,5.45
2022-11-17T16:44:41.443Z,8.15
2022-11-17T16:49:51.514Z,5.22
2022-11-17T16:54:59.151Z,5.82
2022-11-17T17:00:06.247Z,6.15
2022-11-17T17:05:12.364Z,15.15
2022-11-17T17:10:16.039Z,9.10
2022-11-17T17:15:19.778Z,15.30
2022-11-17T17:20:24.998Z,14.88
2022-11-17T17:25:28.538Z,10.38
2022-11-17T17:30:32.082Z,11.77
2022-11-17T17:35:37.325Z,12.23
2022-11-17T17:40:40.879Z,16.35
2022-11-17T17:45:44.485Z,11.45
2022-11-17T17:50:49.693Z,17.27
2022-11-17T17:55:53.209Z,19.90
2022-11-17T18:00:57.304Z,20.70
2022-11-17T18:06:03.034Z,22.20
2022-11-17T18:11:08.804Z,16.17
2022-11-17T18:16:14.032Z,21.50
2022-11-17T18:21:20.630Z,16.00
2022-11-17T18:26:25.736Z,18.27
2022-11-17T18:31:30.798Z,11.55
2022-11-17T18:36:36.087Z,19.80
2022-11-17T18:41:39.702Z,23.30
2022-11-17T18:46:43.277Z,14.93
2022-11-17T18:51:48.533Z,19.80
2022-11-17T18:56:52.158Z,17.23
2022-11-17T19:01:55.750Z,19.40
2022-11-17T19:07:01.023Z,16.33
2022-11-17T19:12:05.009Z,15.20
2022-11-17T19:17:08.729Z,15.23
2022-11-17T19:22:13.910Z,18.75
2022-11-17T19:27:17.464Z,19.93
2022-11-17T19:32:20.991Z,22.35
2022-11-17T19:37:26.252Z,25.63
2022-11-17T19:42:29.835Z,17.93
2022-11-17T19:47:33.545Z,28.85
2022-11-17T19:52:38.768Z,30.00
2022-11-17T19:57:42.332Z,17.13
2022-11-17T20:02:45.876Z,19.48
2022-11-17T20:07:51.096Z,23.52
2022-11-17T20:12:54.677Z,21.37
2022-11-17T20:17:58.275Z,23.88
2022-11-17T20:23:04.385Z,23.55
2022-11-17T20:28:07.969Z,21.33
2022-11-17T20:33:11.552Z,24.23
2022-11-17T20:38:16.829Z,27.42
2022-11-17T20:43:20.360Z,23.57
2022-11-17T20:48:24.871Z,23.92
2022-11-17T20:53:30.848Z,25.33
2022-11-17T20:58:34.843Z,21.63
2022-11-17T21:03:38.705Z,22.90
2022-11-17T21:08:45.191Z,25.50
2022-11-17T21:13:48.767Z,23.52
2022-11-17T21:18:52.388Z,25.13
2022-11-17T21:23:57.615Z,23.70
2022-11-17T21:29:06.218Z,27.13
2022-11-17T21:34:15.935Z,22.75
2022-11-17T21:39:21.191Z,20.92
2022-11-17T21:44:24.767Z,20.23
2022-11-17T21:49:28.321Z,21.23
2022-11-17T21:54:33.675Z,22.85
2022-11-17T21:59:37.293Z,20.52
2022-11-17T22:04:40.866Z,16.63
2022-11-17T22:09:46.071Z,18.08
2022-11-17T22:14:49.679Z,10.15
2022-11-17T22:19:53.269Z,15.60
2022-11-17T22:25:11.460Z,16.98
2022-11-17T22:30:21.980Z,17.63
2022-11-17T22:35:25.596Z,18.05
2022-11-17T22:40:30.820Z,16.23
2022-11-17T22:45:37.087Z,15.20
2022-11-17T22:50:40.655Z,17.10
2022-11-17T22:55:45.938Z,12.65
2022-11-17T23:00:49.589Z,12.27
2022-11-17T23:05:53.124Z,11.45
2022-11-17T23:11:34.932Z,9.70
2022-11-17T23:16:26.504Z,5.70
2022-11-17T23:21:30.120Z,5.80
2022-11-17T23:26:35.442Z,6.75
2022-11-17T23:31:39.027Z,12.48
2022-11-17T23:36:42.656Z,8.77
2022-11-17T23:41:48.499Z,5.50
2022-11-17T23:51:54.920Z,9.25
2022-11-17T23:57:00.122Z,6.57
